^^
Station Historical Data
Daily Summary for May 10, 2017 Units:  English    Metric   Both
« Previous Day
Next Day »
Daily Weekly Monthly Yearly Custom
  High: Low: Average:
Temperature: 67.0 °F 47.4 °F 56.1 °F
Dew Point: 41.8 °F 32.8 °F 36.7 °F
Humidity: 67 % 28 % 50 %
Wind Speed: 9.1 mph 0.0 mph 0.8 mph
Wind Gust: 21.9 mph - -
Wind:- - SE
Pressure: 30.05 in 29.97 in -
Precipitation: 0.00 in    
Historical Graphs
 
 
Tabular Data for May 10, 2017
Time Temperature Dew Point Pressure Wind Wind Speed Wind Gust Humidity Rainfall Rate (Hourly) solar Conditions
00:02 53.3 °F 35.1 °F 29.98 in Calm     50 % 0.00 in 0.0 W/m2 OVC
00:07 53.3 °F 35.1 °F 29.98 in Calm   1.2 mph 50 % 0.00 in 0.0 W/m2 OVC
00:12 53.2 °F 35.0 °F 29.98 in Calm   1.2 mph 50 % 0.00 in 0.0 W/m2 OVC
00:17 53.1 °F 35.4 °F 29.97 in Calm     51 % 0.00 in 0.0 W/m2 OVC
00:22 53.0 °F 35.8 °F 29.97 in Calm     52 % 0.00 in 0.0 W/m2 OVC
00:28 52.7 °F 36.0 °F 29.97 in Calm     53 % 0.00 in 0.0 W/m2 OVC
00:29 52.7 °F 36.5 °F 29.97 in Calm     54 % 0.00 in 0.0 W/m2 OVC
00:34 52.5 °F 36.3 °F 29.98 in Calm     54 % 0.00 in 0.0 W/m2 OVC
00:39 52.3 °F 36.6 °F 29.98 in Calm     55 % 0.00 in 0.0 W/m2 OVC
00:45 52.2 °F 36.5 °F 29.98 in Calm     55 % 0.00 in 0.0 W/m2 OVC
00:50 52.2 °F 36.0 °F 29.98 in Calm   1.2 mph 54 % 0.00 in 0.0 W/m2 OVC
00:55 52.0 °F 36.3 °F 29.99 in Calm   1.2 mph 55 % 0.00 in 0.0 W/m2 OVC
01:00 51.9 °F 36.7 °F 29.99 in Calm   1.2 mph 56 % 0.00 in 0.0 W/m2 OVC
01:05 51.8 °F 36.6 °F 29.99 in Calm     56 % 0.00 in 0.0 W/m2 BKN
01:10 51.6 °F 36.4 °F 29.98 in Calm     56 % 0.00 in 0.0 W/m2 BKN
01:15 51.6 °F 36.4 °F 29.98 in Calm   2.3 mph 56 % 0.00 in 0.0 W/m2 BKN
01:20 51.5 °F 36.3 °F 29.99 in NE 0.3 mph 3.5 mph 56 % 0.00 in 0.0 W/m2 BKN
01:25 51.3 °F 35.7 °F 29.98 in Calm   4.0 mph 55 % 0.00 in 0.0 W/m2 BKN
01:30 51.2 °F 35.6 °F 29.98 in NE 0.2 mph 5.8 mph 55 % 0.00 in 0.0 W/m2 BKN
01:35 51.0 °F 35.9 °F 29.98 in NE 1.0 mph 4.0 mph 56 % 0.00 in 0.0 W/m2 BKN
01:40 50.9 °F 35.3 °F 29.98 in Calm   6.0 mph 55 % 0.00 in 0.0 W/m2 BKN
01:45 50.8 °F 35.7 °F 29.98 in NNE 0.8 mph 5.8 mph 56 % 0.00 in 0.0 W/m2 BKN
01:50 50.7 °F 36.0 °F 29.98 in NNE 1.0 mph 5.0 mph 57 % 0.00 in 0.0 W/m2 BKN
01:55 50.7 °F 36.0 °F 29.99 in Calm   5.0 mph 57 % 0.00 in 0.0 W/m2 BKN
02:00 50.7 °F 36.0 °F 29.98 in Calm   4.6 mph 57 % 0.00 in 0.0 W/m2 BKN
02:05 50.6 °F 35.9 °F 29.98 in NNE 1.0 mph 3.0 mph 57 % 0.00 in 0.0 W/m2 BKN
02:10 50.4 °F 36.2 °F 29.98 in NNE 2.0 mph 8.0 mph 58 % 0.00 in 0.0 W/m2 BKN
02:15 50.3 °F 36.1 °F 29.98 in NNE 0.7 mph 8.1 mph 58 % 0.00 in 0.0 W/m2 BKN
02:20 50.2 °F 36.0 °F 29.98 in NNE 1.3 mph 8.1 mph 58 % 0.00 in 0.0 W/m2 BKN
02:25 50.0 °F 35.8 °F 29.98 in NNE 1.0 mph 5.0 mph 58 % 0.00 in 0.0 W/m2 BKN
02:30 49.9 °F 36.1 °F 29.98 in NNE 1.4 mph 4.6 mph 59 % 0.00 in 0.0 W/m2 BKN
02:35 49.8 °F 36.0 °F 29.98 in NNE 1.0 mph 4.0 mph 59 % 0.00 in 0.0 W/m2 BKN
02:40 49.7 °F 35.9 °F 29.98 in NNE 0.3 mph 5.8 mph 59 % 0.00 in 0.0 W/m2 BKN
02:45 49.5 °F 36.2 °F 29.99 in Calm   5.8 mph 60 % 0.00 in 0.0 W/m2 BKN
02:50 49.5 °F 36.6 °F 29.99 in Calm   1.0 mph 61 % 0.00 in 0.0 W/m2 BKN
02:55 49.4 °F 36.5 °F 29.99 in Calm   1.2 mph 61 % 0.00 in 0.0 W/m2 BKN
03:00 49.3 °F 36.4 °F 29.99 in Calm     61 % 0.00 in 0.0 W/m2 BKN
03:05 49.4 °F 36.5 °F 29.98 in Calm   1.0 mph 61 % 0.00 in 0.0 W/m2 OVC
03:10 49.3 °F 36.4 °F 29.98 in Calm     61 % 0.00 in 0.0 W/m2 OVC
03:15 49.3 °F 36.8 °F 29.98 in Calm   1.2 mph 62 % 0.00 in 0.0 W/m2 OVC
03:20 49.2 °F 36.7 °F 29.98 in Calm     62 % 0.00 in 0.0 W/m2 OVC
03:25 49.2 °F 36.7 °F 29.99 in Calm   1.2 mph 62 % 0.00 in 0.0 W/m2 OVC
03:30 49.1 °F 37.0 °F 29.99 in NNE 0.4 mph 3.5 mph 63 % 0.00 in 0.0 W/m2 OVC
03:35 49.1 °F 37.0 °F 29.99 in Calm   3.5 mph 63 % 0.00 in 0.0 W/m2 OVC
03:40 49.2 °F 37.1 °F 29.99 in Calm   3.5 mph 63 % 0.00 in 0.0 W/m2 OVC
03:45 49.0 °F 36.9 °F 29.99 in Calm   1.2 mph 63 % 0.00 in 0.0 W/m2 OVC
03:50 48.9 °F 37.3 °F 29.99 in Calm   1.2 mph 64 % 0.00 in 0.0 W/m2 OVC
03:55 48.8 °F 37.2 °F 29.99 in NNE 0.1 mph 1.2 mph 64 % 0.00 in 0.0 W/m2 OVC
04:00 48.8 °F 37.2 °F 29.99 in Calm   1.2 mph 64 % 0.00 in 0.0 W/m2 OVC
04:05 48.7 °F 37.1 °F 29.99 in Calm   1.2 mph 64 % 0.00 in 0.0 W/m2 OVC
04:10 48.6 °F 37.4 °F 29.99 in Calm     65 % 0.00 in 0.0 W/m2 OVC
04:15 48.6 °F 37.4 °F 30.00 in Calm     65 % 0.00 in 0.0 W/m2 OVC
04:21 48.5 °F 37.3 °F 30.00 in Calm     65 % 0.00 in 0.0 W/m2 OVC
04:26 48.5 °F 37.7 °F 30.00 in Calm     66 % 0.00 in 0.0 W/m2 OVC
04:31 48.4 °F 37.6 °F 30.00 in Calm     66 % 0.00 in 0.0 W/m2 OVC
04:36 48.3 °F 37.1 °F 30.00 in Calm     65 % 0.00 in 0.0 W/m2 OVC
04:41 48.2 °F 37.4 °F 29.99 in Calm     66 % 0.00 in 0.0 W/m2 OVC
04:46 48.1 °F 37.3 °F 30.00 in Calm     66 % 0.00 in 0.0 W/m2 OVC
04:51 48.1 °F 37.3 °F 29.99 in Calm   1.2 mph 66 % 0.00 in 0.0 W/m2 OVC
04:56 48.1 °F 37.3 °F 29.99 in Calm   1.2 mph 66 % 0.00 in 0.0 W/m2 OVC
05:02 48.0 °F 37.2 °F 29.99 in Calm     66 % 0.00 in 0.0 W/m2 BKN
05:07 48.1 °F 37.3 °F 30.00 in NNE 1.9 mph 3.5 mph 66 % 0.00 in 0.0 W/m2 BKN
05:12 48.0 °F 36.8 °F 30.00 in NNE 0.1 mph 3.5 mph 65 % 0.00 in 0.0 W/m2 BKN
05:17 48.0 °F 37.2 °F 30.00 in Calm   3.5 mph 66 % 0.00 in 0.0 W/m2 BKN
05:22 47.8 °F 37.0 °F 30.01 in Calm   3.5 mph 66 % 0.00 in 0.0 W/m2 BKN
05:27 47.8 °F 37.0 °F 30.01 in Calm   2.3 mph 66 % 0.00 in 0.0 W/m2 BKN
05:32 47.6 °F 36.8 °F 30.01 in Calm   3.5 mph 66 % 0.00 in 0.0 W/m2 BKN
05:37 47.7 °F 36.5 °F 30.01 in NNE 2.2 mph 3.5 mph 65 % 0.00 in 0.0 W/m2 BKN
05:42 47.7 °F 36.5 °F 30.02 in NNE 1.9 mph 3.5 mph 65 % 0.00 in 0.0 W/m2 BKN
05:47 47.7 °F 36.1 °F 30.02 in Calm   3.5 mph 64 % 0.00 in 0.0 W/m2 BKN
05:52 47.7 °F 36.1 °F 30.02 in NNE 0.1 mph 3.5 mph 64 % 0.00 in 0.0 W/m2 BKN
05:57 47.6 °F 36.0 °F 30.02 in Calm   2.3 mph 64 % 0.00 in 0.0 W/m2 BKN
06:02 47.5 °F 35.9 °F 30.02 in Calm   1.2 mph 64 % 0.00 in 0.0 W/m2 OVC
06:07 47.5 °F 36.3 °F 30.02 in Calm   2.3 mph 65 % 0.00 in 5.0 W/m2 OVC
06:12 47.6 °F 36.4 °F 30.02 in Calm   2.3 mph 65 % 0.00 in 9.0 W/m2 OVC
06:17 47.6 °F 36.4 °F 30.02 in Calm     65 % 0.00 in 14.0 W/m2 OVC
06:22 47.5 °F 36.3 °F 30.03 in Calm   2.3 mph 65 % 0.00 in 16.0 W/m2 OVC
06:27 47.5 °F 36.3 °F 30.03 in Calm   2.3 mph 65 % 0.00 in 19.0 W/m2 OVC
06:32 47.4 °F 36.6 °F 30.03 in Calm     66 % 0.00 in 23.0 W/m2 OVC
06:37 47.4 °F 36.6 °F 30.03 in Calm     66 % 0.00 in 28.0 W/m2 OVC
06:42 47.5 °F 37.1 °F 30.03 in Calm     67 % 0.00 in 35.0 W/m2 OVC
06:47 47.6 °F 37.2 °F 30.03 in Calm     67 % 0.00 in 40.0 W/m2 OVC
06:52 47.6 °F 37.2 °F 30.03 in Calm     67 % 0.00 in 47.0 W/m2 OVC
06:57 47.6 °F 37.2 °F 30.03 in Calm     67 % 0.00 in 54.0 W/m2 OVC
07:02 47.6 °F 37.2 °F 30.03 in Calm     67 % 0.00 in 63.0 W/m2 CLR
07:07 47.8 °F 37.4 °F 30.03 in NNE 0.3 mph 2.3 mph 67 % 0.00 in 67.0 W/m2 CLR
07:12 47.8 °F 37.4 °F 30.03 in Calm   2.3 mph 67 % 0.00 in 74.0 W/m2 CLR
07:17 47.9 °F 37.5 °F 30.03 in Calm   2.3 mph 67 % 0.00 in 86.0 W/m2 CLR
07:22 48.0 °F 37.6 °F 30.04 in Calm   3.5 mph 67 % 0.00 in 90.0 W/m2 CLR
07:27 48.1 °F 37.3 °F 30.04 in Calm   3.5 mph 66 % 0.00 in 90.0 W/m2 CLR
07:32 48.2 °F 37.4 °F 30.05 in Calm   2.3 mph 66 % 0.00 in 98.0 W/m2 CLR
07:37 48.3 °F 37.1 °F 30.04 in Calm     65 % 0.00 in 118.0 W/m2 CLR
07:42 48.4 °F 36.8 °F 30.04 in Calm     64 % 0.00 in 132.0 W/m2 CLR
07:47 48.8 °F 37.6 °F 30.04 in Calm     65 % 0.00 in 142.0 W/m2 CLR
07:52 48.9 °F 37.3 °F 30.05 in Calm     64 % 0.00 in 158.0 W/m2 CLR
07:57 49.0 °F 37.3 °F 30.05 in Calm     64 % 0.00 in 171.0 W/m2 CLR
08:02 49.0 °F 36.9 °F 30.04 in Calm     63 % 0.00 in 183.0 W/m2 CLR
08:07 49.3 °F 37.2 °F 30.04 in Calm     63 % 0.00 in 193.0 W/m2 CLR
08:12 49.4 °F 36.9 °F 30.04 in Calm     62 % 0.00 in 209.0 W/m2 CLR
08:17 49.6 °F 37.1 °F 30.04 in Calm     62 % 0.00 in 216.0 W/m2 CLR
08:22 49.7 °F 37.2 °F 30.05 in Calm     62 % 0.00 in 220.0 W/m2 CLR
08:27 50.1 °F 37.6 °F 30.05 in Calm     62 % 0.00 in 229.0 W/m2 CLR
08:32 50.0 °F 36.7 °F 30.05 in Calm     60 % 0.00 in 232.0 W/m2 CLR
08:37 50.2 °F 37.3 °F 30.05 in Calm     61 % 0.00 in 237.0 W/m2 CLR
08:42 50.3 °F 37.8 °F 30.05 in Calm     62 % 0.00 in 241.0 W/m2 CLR
08:47 50.4 °F 37.9 °F 30.05 in Calm     62 % 0.00 in 250.0 W/m2 CLR
08:49 50.5 °F 38.0 °F 30.05 in Calm     62 % 0.00 in 251.0 W/m2 CLR
08:54 50.9 °F 38.3 °F 30.05 in Calm   2.3 mph 62 % 0.00 in 264.0 W/m2 CLR
08:59 51.0 °F 38.0 °F 30.05 in Calm   2.3 mph 61 % 0.00 in 276.0 W/m2 CLR
09:00 51.2 °F 38.6 °F 30.05 in Calm   2.3 mph 62 % 0.00 in 295.0 W/m2 CLR
09:05 51.1 °F 37.7 °F 30.05 in Calm     60 % 0.00 in 306.0 W/m2 CLR
09:10 51.7 °F 38.3 °F 30.05 in Calm   3.5 mph 60 % 0.00 in 322.0 W/m2 CLR
09:15 52.7 °F 38.8 °F 30.05 in NW 0.9 mph 3.5 mph 59 % 0.00 in 352.0 W/m2 CLR
09:20 52.8 °F 38.9 °F 30.04 in NW 0.9 mph 3.5 mph 59 % 0.00 in 390.0 W/m2 CLR
09:25 53.2 °F 39.7 °F 30.04 in NNW 0.4 mph 3.5 mph 60 % 0.00 in 441.0 W/m2 CLR
09:31 53.5 °F 39.1 °F 30.04 in NW 0.2 mph 3.5 mph 58 % 0.00 in 577.0 W/m2 CLR
09:36 53.4 °F 40.3 °F 30.04 in Calm   3.5 mph 61 % 0.00 in 816.0 W/m2 CLR
09:41 54.6 °F 40.6 °F 30.04 in Calm   3.5 mph 59 % 0.00 in 782.0 W/m2 CLR
09:46 55.5 °F 41.8 °F 30.04 in Calm   3.5 mph 60 % 0.00 in 780.0 W/m2 CLR
09:51 55.7 °F 40.2 °F 30.04 in North 0.2 mph 3.5 mph 56 % 0.00 in 768.0 W/m2 CLR
09:56 55.1 °F 38.7 °F 30.04 in Calm   3.5 mph 54 % 0.00 in 761.0 W/m2 CLR
10:01 55.0 °F 39.6 °F 30.04 in Calm   3.5 mph 56 % 0.00 in 768.0 W/m2 CLR
10:06 55.5 °F 38.1 °F 30.04 in Calm   3.5 mph 52 % 0.00 in 772.0 W/m2 CLR
10:11 56.1 °F 38.2 °F 30.03 in Calm   3.5 mph 51 % 0.00 in 765.0 W/m2 CLR
10:16 56.4 °F 38.0 °F 30.03 in Calm   3.5 mph 50 % 0.00 in 775.0 W/m2 CLR
10:21 57.1 °F 36.5 °F 30.04 in Calm   3.5 mph 46 % 0.00 in 803.0 W/m2 CLR
10:26 57.1 °F 35.9 °F 30.04 in Calm   3.5 mph 45 % 0.00 in 814.0 W/m2 CLR
10:31 56.9 °F 36.3 °F 30.03 in Calm   1.2 mph 46 % 0.00 in 826.0 W/m2 CLR
10:36 57.0 °F 37.5 °F 30.04 in NNE 1.7 mph 3.5 mph 48 % 0.00 in 833.0 W/m2 CLR
10:41 57.0 °F 37.0 °F 30.04 in Calm   3.5 mph 47 % 0.00 in 851.0 W/m2 CLR
10:46 58.0 °F 35.6 °F 30.03 in Calm   9.2 mph 43 % 0.00 in 861.0 W/m2 CLR
10:51 58.4 °F 38.2 °F 30.03 in NNW 0.7 mph 9.2 mph 47 % 0.00 in 870.0 W/m2 CLR
10:56 59.0 °F 35.9 °F 30.03 in WNW 5.1 mph 10.4 mph 42 % 0.00 in 877.0 W/m2 CLR
11:01 59.2 °F 35.5 °F 30.03 in WSW 2.8 mph 10.4 mph 41 % 0.00 in 886.0 W/m2 CLR
11:06 58.5 °F 34.9 °F 30.03 in SW 0.3 mph 10.4 mph 41 % 0.00 in 898.0 W/m2 CLR
11:11 59.7 °F 35.9 °F 30.02 in NNW 1.7 mph 8.1 mph 41 % 0.00 in 905.0 W/m2 CLR
11:16 59.8 °F 35.4 °F 30.02 in Calm   8.1 mph 40 % 0.00 in 912.0 W/m2 CLR
11:21 59.6 °F 33.9 °F 30.01 in West 0.9 mph 6.9 mph 38 % 0.00 in 926.0 W/m2 CLR
11:26 60.3 °F 36.5 °F 30.02 in NNW 2.2 mph 6.9 mph 41 % 0.00 in 949.0 W/m2 CLR
11:31 61.1 °F 36.6 °F 30.02 in NW 3.2 mph 6.9 mph 40 % 0.00 in 768.0 W/m2 CLR
11:36 60.3 °F 36.5 °F 30.02 in Calm   5.8 mph 41 % 0.00 in 949.0 W/m2 CLR
11:41 61.2 °F 36.7 °F 30.01 in SW 6.6 mph 9.2 mph 40 % 0.00 in 953.0 W/m2 CLR
11:46 60.9 °F 35.8 °F 30.01 in WSW 4.5 mph 11.5 mph 39 % 0.00 in 956.0 W/m2 CLR
11:51 61.3 °F 35.5 °F 30.01 in NW 1.0 mph 11.5 mph 38 % 0.00 in 963.0 W/m2 CLR
11:56 61.3 °F 35.5 °F 30.01 in NNW 0.6 mph 11.5 mph 38 % 0.00 in 972.0 W/m2 CLR
12:01 60.1 °F 34.4 °F 30.01 in Calm   3.5 mph 38 % 0.00 in 977.0 W/m2 CLR
12:06 60.8 °F 36.3 °F 30.00 in NNW 0.6 mph 9.2 mph 40 % 0.00 in 984.0 W/m2 CLR
12:11 61.3 °F 35.5 °F 30.00 in SW 0.8 mph 9.2 mph 38 % 0.00 in 933.0 W/m2 CLR
12:16 62.0 °F 36.1 °F 30.00 in North 9.1 mph 11.5 mph 38 % 0.00 in 997.0 W/m2 CLR
12:21 62.8 °F 35.4 °F 30.00 in WNW 3.7 mph 13.8 mph 36 % 0.00 in 998.0 W/m2 CLR
12:27 63.0 °F 37.0 °F 30.00 in NW 0.7 mph 13.8 mph 38 % 0.00 in 995.0 W/m2 CLR
12:32 63.2 °F 36.5 °F 30.00 in NNW 5.1 mph 10.4 mph 37 % 0.00 in 991.0 W/m2 CLR
12:37 63.7 °F 36.2 °F 30.00 in NW 7.7 mph 12.7 mph 36 % 0.00 in 1013.0 W/m2 CLR
12:42 64.0 °F 35.8 °F 29.99 in WNW 4.3 mph 12.7 mph 35 % 0.00 in 1007.0 W/m2 CLR
12:47 64.0 °F 35.0 °F 29.99 in West 5.2 mph 12.7 mph 34 % 0.00 in 1007.0 W/m2 CLR
12:52 63.9 °F 35.7 °F 29.99 in WSW 4.0 mph 12.7 mph 35 % 0.00 in 997.0 W/m2 CLR
12:57 64.5 °F 35.5 °F 29.99 in NNW 4.6 mph 11.5 mph 34 % 0.00 in 1013.0 W/m2 CLR
13:02 64.8 °F 35.0 °F 29.99 in NW 3.1 mph 21.9 mph 33 % 0.00 in 1090.0 W/m2 CLR
13:07 65.2 °F 36.8 °F 29.99 in NW 2.6 mph 21.9 mph 35 % 0.00 in 1086.0 W/m2 CLR
13:12 66.0 °F 34.5 °F 29.99 in WNW 6.0 mph 11.5 mph 31 % 0.00 in 1155.0 W/m2 CLR
13:17 64.9 °F 34.3 °F 29.98 in NNE 2.1 mph 11.5 mph 32 % 0.00 in 979.0 W/m2 CLR
13:22 64.4 °F 35.4 °F 29.98 in Calm   11.5 mph 34 % 0.00 in 619.0 W/m2 CLR
13:27 65.0 °F 37.4 °F 29.98 in NNW 4.9 mph 13.8 mph 36 % 0.00 in 661.0 W/m2 CLR
13:32 65.6 °F 35.7 °F 29.98 in West 3.8 mph 13.8 mph 33 % 0.00 in 891.0 W/m2 CLR
13:37 65.0 °F 33.6 °F 29.98 in WNW 2.7 mph 9.2 mph 31 % 0.00 in 469.0 W/m2 CLR
13:42 64.8 °F 35.8 °F 29.98 in NW 5.8 mph 11.5 mph 34 % 0.00 in 452.0 W/m2 CLR
13:47 64.6 °F 34.1 °F 29.98 in WNW 4.7 mph 11.5 mph 32 % 0.00 in 448.0 W/m2 CLR
13:52 64.2 °F 32.9 °F 29.98 in West 2.8 mph 11.5 mph 31 % 0.00 in 858.0 W/m2 CLR
13:57 64.6 °F 34.8 °F 29.98 in North 3.3 mph 13.8 mph 33 % 0.00 in 905.0 W/m2 CLR
14:02 66.1 °F 36.1 °F 29.98 in WNW 4.3 mph 13.8 mph 33 % 0.00 in 656.0 W/m2 CLR
14:07 65.1 °F 33.7 °F 29.98 in NW 3.1 mph 11.5 mph 31 % 0.00 in 471.0 W/m2 CLR
14:12 65.4 °F 34.8 °F 29.98 in West 0.6 mph 10.4 mph 32 % 0.00 in 626.0 W/m2 CLR
14:17 66.0 °F 36.1 °F 29.98 in NNW 3.0 mph 11.5 mph 33 % 0.00 in 960.0 W/m2 CLR
14:22 66.9 °F 35.3 °F 29.97 in NW 0.3 mph 13.8 mph 31 % 0.00 in 896.0 W/m2 CLR
14:27 66.4 °F 36.4 °F 29.97 in North 0.3 mph 13.8 mph 33 % 0.00 in 269.0 W/m2 CLR
14:32 65.9 °F 33.6 °F 29.98 in West 1.5 mph 10.4 mph 30 % 0.00 in 795.0 W/m2 CLR
14:37 65.8 °F 35.1 °F 29.98 in NNW 0.7 mph 10.4 mph 32 % 0.00 in 1034.0 W/m2 CLR
14:42 67.0 °F 35.3 °F 29.97 in Calm   10.4 mph 31 % 0.00 in 1078.0 W/m2 CLR
14:44 67.0 °F 32.8 °F 29.97 in Calm   9.2 mph 28 % 0.00 in 1179.0 W/m2 CLR
14:49 66.4 °F 37.2 °F 29.98 in NW 2.9 mph 5.8 mph 34 % 0.00 in 461.0 W/m2 CLR
14:54 66.6 °F 35.0 °F 29.98 in NW 2.1 mph 8.1 mph 31 % 0.00 in 422.0 W/m2 CLR
14:59 65.4 °F 37.0 °F 29.98 in North 0.8 mph 8.1 mph 35 % 0.00 in 513.0 W/m2 CLR
15:04 65.0 °F 37.4 °F 29.98 in North 0.6 mph 8.1 mph 36 % 0.00 in 550.0 W/m2 CLR
15:09 64.4 °F 36.1 °F 29.98 in NNE 4.5 mph 11.5 mph 35 % 0.00 in 531.0 W/m2 CLR
15:14 64.3 °F 36.0 °F 29.98 in NNE 2.7 mph 11.5 mph 35 % 0.00 in 452.0 W/m2 CLR
15:19 63.7 °F 36.2 °F 29.98 in NNE 0.9 mph 11.5 mph 36 % 0.00 in 461.0 W/m2 CLR
15:24 64.1 °F 38.0 °F 29.98 in North 2.7 mph 10.4 mph 38 % 0.00 in 814.0 W/m2 CLR
15:29 65.0 °F 37.4 °F 29.98 in NNE 4.2 mph 10.4 mph 36 % 0.00 in 893.0 W/m2 CLR
15:35 64.7 °F 36.4 °F 29.98 in NNE 1.2 mph 11.5 mph 35 % 0.00 in 448.0 W/m2 CLR
15:40 64.4 °F 36.9 °F 29.98 in NNE 1.0 mph 7.0 mph 36 % 0.00 in 649.0 W/m2 CLR
15:44 64.3 °F 36.8 °F 29.98 in NNE 2.0 mph 7.0 mph 36 % 0.00 in 763.0 W/m2 CLR
15:50 64.3 °F 36.8 °F 29.98 in NNE 2.8 mph 9.2 mph 36 % 0.00 in 422.0 W/m2 OVC
15:55 63.9 °F 35.7 °F 29.98 in North 0.8 mph 9.2 mph 35 % 0.00 in 392.0 W/m2 CLR
16:00 63.9 °F 35.7 °F 29.99 in NNW 1.4 mph 10.4 mph 35 % 0.00 in 471.0 W/m2 CLR
16:05 65.0 °F 36.7 °F 29.98 in NNW 4.0 mph 11.5 mph 35 % 0.00 in 728.0 W/m2 -RA
16:10 65.1 °F 36.8 °F 29.98 in NNE 0.5 mph 11.5 mph 35 % 0.00 in 861.0 W/m2 -RA
16:15 64.3 °F 36.8 °F 29.98 in NNE 0.9 mph 11.5 mph 36 % 0.00 in 244.0 W/m2 -RA
16:20 64.7 °F 37.8 °F 29.98 in Calm   8.1 mph 37 % 0.00 in 371.0 W/m2 -RA
16:25 64.6 °F 38.4 °F 29.98 in North 0.2 mph 3.5 mph 38 % 0.00 in 592.0 W/m2 -RA
16:30 64.8 °F 36.5 °F 29.98 in NW 0.1 mph 5.8 mph 35 % 0.00 in 594.0 W/m2 -RA
16:35 64.8 °F 37.9 °F 29.98 in NNE 0.9 mph 8.1 mph 37 % 0.00 in 582.0 W/m2 -RA
16:40 65.0 °F 38.8 °F 29.98 in NNE 2.2 mph 10.4 mph 38 % 0.00 in 638.0 W/m2 -RA
16:45 64.5 °F 37.6 °F 29.98 in NNE 1.8 mph 10.4 mph 37 % 0.00 in 327.0 W/m2 -RA
16:50 64.3 °F 38.8 °F 29.99 in NNE 0.4 mph 8.1 mph 39 % 0.00 in 313.0 W/m2 -RA
16:55 63.8 °F 38.4 °F 29.98 in NNE 1.0 mph 8.1 mph 39 % 0.00 in 290.0 W/m2 -RA
17:00 63.7 °F 37.6 °F 29.99 in NNE 1.5 mph 8.1 mph 38 % 0.00 in 545.0 W/m2 -RA
17:06 63.7 °F 37.6 °F 29.99 in NNE 1.7 mph 9.2 mph 38 % 0.00 in 269.0 W/m2 CLR
17:11 63.3 °F 37.9 °F 29.99 in North 1.1 mph 9.2 mph 39 % 0.00 in 192.0 W/m2 CLR
17:16 63.0 °F 37.6 °F 29.98 in NE 1.6 mph 4.6 mph 39 % 0.00 in 158.0 W/m2 CLR
17:21 62.7 °F 36.7 °F 29.99 in NNE 1.4 mph 4.6 mph 38 % 0.00 in 163.0 W/m2 CLR
17:26 62.6 °F 37.9 °F 29.98 in Calm   4.6 mph 40 % 0.00 in 158.0 W/m2 CLR
17:31 62.7 °F 37.4 °F 29.99 in Calm   3.5 mph 39 % 0.00 in 239.0 W/m2 CLR
17:36 63.1 °F 38.4 °F 29.99 in NNE 0.5 mph 3.5 mph 40 % 0.00 in 202.0 W/m2 CLR
17:41 63.0 °F 38.3 °F 29.99 in NNE 2.4 mph 4.6 mph 40 % 0.00 in 153.0 W/m2 CLR
17:46 62.8 °F 37.5 °F 29.98 in North 3.3 mph 4.6 mph 39 % 0.00 in 158.0 W/m2 CLR
17:51 62.5 °F 37.2 °F 29.98 in NNE 1.6 mph 8.1 mph 39 % 0.00 in 202.0 W/m2 CLR
17:56 62.4 °F 37.1 °F 29.98 in NNE 1.0 mph 8.1 mph 39 % 0.00 in 146.0 W/m2 CLR
18:01 62.4 °F 37.1 °F 29.99 in NNE 1.7 mph 8.1 mph 39 % 0.00 in 148.0 W/m2 CLR
18:06 62.5 °F 37.2 °F 29.99 in Calm   8.1 mph 39 % 0.00 in 151.0 W/m2 CLR
18:11 62.4 °F 37.1 °F 29.99 in Calm   3.5 mph 39 % 0.00 in 130.0 W/m2 CLR
18:16 62.8 °F 37.5 °F 29.99 in North 0.8 mph 3.5 mph 39 % 0.00 in 297.0 W/m2 CLR
18:21 63.2 °F 36.5 °F 29.99 in NNE 0.6 mph 3.5 mph 37 % 0.00 in 267.0 W/m2 CLR
18:26 63.4 °F 38.0 °F 29.98 in Calm   3.5 mph 39 % 0.00 in 255.0 W/m2 CLR
18:31 63.5 °F 37.4 °F 29.98 in NNE 0.5 mph 4.6 mph 38 % 0.00 in 214.0 W/m2 CLR
18:36 63.4 °F 36.7 °F 29.98 in NNE 1.1 mph 5.8 mph 37 % 0.00 in 171.0 W/m2 CLR
18:41 63.1 °F 36.4 °F 29.98 in Calm   5.8 mph 37 % 0.00 in 104.0 W/m2 CLR
18:46 62.8 °F 36.8 °F 29.98 in Calm   3.5 mph 38 % 0.00 in 149.0 W/m2 CLR
18:51 62.8 °F 36.8 °F 29.98 in NNE 1.2 mph 4.6 mph 38 % 0.00 in 111.0 W/m2 CLR
18:56 62.6 °F 36.6 °F 29.99 in NNE 0.3 mph 4.6 mph 38 % 0.00 in 118.0 W/m2 CLR
19:01 62.5 °F 36.5 °F 29.99 in NNE 0.3 mph 4.6 mph 38 % 0.00 in 125.0 W/m2 CLR
19:06 62.4 °F 36.4 °F 29.99 in NNE 0.9 mph 3.5 mph 38 % 0.00 in 105.0 W/m2 CLR
19:11 62.2 °F 36.3 °F 29.99 in North 1.9 mph 3.5 mph 38 % 0.00 in 86.0 W/m2 CLR
19:16 62.0 °F 36.1 °F 29.99 in NNE 2.2 mph 5.8 mph 38 % 0.00 in 67.0 W/m2 CLR
19:21 61.8 °F 35.9 °F 30.00 in NNE 1.3 mph 5.8 mph 38 % 0.00 in 44.0 W/m2 CLR
19:26 61.6 °F 35.7 °F 29.99 in NNE 0.7 mph 3.5 mph 38 % 0.00 in 37.0 W/m2 CLR
19:31 61.4 °F 36.2 °F 29.99 in Calm   3.5 mph 39 % 0.00 in 23.0 W/m2 CLR
19:36 61.0 °F 35.8 °F 29.99 in Calm   3.5 mph 39 % 0.00 in 21.0 W/m2 CLR
19:41 60.8 °F 36.3 °F 30.00 in Calm   2.3 mph 40 % 0.00 in 16.0 W/m2 CLR
19:46 60.5 °F 36.7 °F 30.00 in Calm     41 % 0.00 in 12.0 W/m2 CLR
19:47 60.4 °F 36.6 °F 30.00 in Calm     41 % 0.00 in 12.0 W/m2 CLR
19:52 60.1 °F 36.3 °F 30.00 in Calm     41 % 0.00 in 9.0 W/m2 CLR
19:57 59.8 °F 36.6 °F 30.00 in Calm     42 % 0.00 in 5.0 W/m2 CLR
20:02 59.2 °F 36.1 °F 30.00 in Calm     42 % 0.00 in 0.0 W/m2 CLR
20:07 58.9 °F 35.8 °F 30.00 in Calm     42 % 0.00 in 0.0 W/m2 CLR
20:12 58.6 °F 36.2 °F 30.00 in Calm     43 % 0.00 in 0.0 W/m2 CLR
20:17 58.4 °F 36.0 °F 30.01 in Calm     43 % 0.00 in 0.0 W/m2 CLR
20:22 58.2 °F 36.4 °F 30.01 in Calm     44 % 0.00 in 0.0 W/m2 CLR
20:27 57.9 °F 36.1 °F 30.01 in Calm     44 % 0.00 in 0.0 W/m2 CLR
20:32 57.7 °F 35.9 °F 30.01 in Calm     44 % 0.00 in 0.0 W/m2 CLR
20:37 57.7 °F 35.9 °F 30.01 in Calm     44 % 0.00 in 0.0 W/m2 CLR
20:42 57.3 °F 36.1 °F 30.01 in Calm     45 % 0.00 in 0.0 W/m2 CLR
20:47 57.0 °F 37.0 °F 30.01 in Calm     47 % 0.00 in 0.0 W/m2 CLR
20:52 56.9 °F 37.4 °F 30.01 in Calm     48 % 0.00 in 0.0 W/m2 CLR
20:57 57.0 °F 37.5 °F 30.01 in Calm     48 % 0.00 in 0.0 W/m2 CLR
21:02 57.0 °F 37.0 °F 30.01 in Calm     47 % 0.00 in 0.0 W/m2 CLR
21:07 56.9 °F 37.4 °F 30.01 in Calm     48 % 0.00 in 0.0 W/m2 CLR
21:12 56.9 °F 36.9 °F 30.02 in Calm     47 % 0.00 in 0.0 W/m2 CLR
21:17 56.7 °F 37.2 °F 30.02 in Calm     48 % 0.00 in 0.0 W/m2 CLR
21:22 56.8 °F 36.2 °F 30.02 in Calm     46 % 0.00 in 0.0 W/m2 CLR
21:27 56.8 °F 36.2 °F 30.02 in Calm     46 % 0.00 in 0.0 W/m2 CLR
21:32 56.6 °F 36.0 °F 30.02 in Calm     46 % 0.00 in 0.0 W/m2 CLR
21:37 56.6 °F 36.0 °F 30.02 in Calm     46 % 0.00 in 0.0 W/m2 CLR
21:42 56.3 °F 35.2 °F 30.02 in Calm     45 % 0.00 in 0.0 W/m2 CLR
21:47 56.2 °F 35.1 °F 30.03 in Calm     45 % 0.00 in 0.0 W/m2 CLR
21:52 55.6 °F 35.1 °F 30.03 in Calm     46 % 0.00 in 0.0 W/m2 CLR
21:57 55.1 °F 35.7 °F 30.03 in Calm     48 % 0.00 in 0.0 W/m2 CLR
22:02 54.8 °F 36.0 °F 30.03 in Calm     49 % 0.00 in 0.0 W/m2 CLR
22:07 54.7 °F 36.4 °F 30.03 in Calm     50 % 0.00 in 0.0 W/m2 CLR
22:12 54.6 °F 36.8 °F 30.04 in Calm     51 % 0.00 in 0.0 W/m2 CLR
22:17 54.6 °F 36.8 °F 30.04 in Calm     51 % 0.00 in 0.0 W/m2 CLR
22:23 54.2 °F 36.5 °F 30.03 in Calm     51 % 0.00 in 0.0 W/m2 CLR
22:28 54.0 °F 36.3 °F 30.04 in Calm     51 % 0.00 in 0.0 W/m2 CLR
22:33 53.8 °F 36.1 °F 30.04 in Calm     51 % 0.00 in 0.0 W/m2 CLR
22:38 53.5 °F 36.3 °F 30.03 in Calm     52 % 0.00 in 0.0 W/m2 CLR
22:43 53.6 °F 36.4 °F 30.03 in Calm     52 % 0.00 in 0.0 W/m2 CLR
22:48 53.6 °F 36.4 °F 30.03 in Calm     52 % 0.00 in 0.0 W/m2 CLR
22:53 54.2 °F 35.9 °F 30.03 in Calm     50 % 0.00 in 0.0 W/m2 CLR
22:58 54.1 °F 35.9 °F 30.04 in Calm     50 % 0.00 in 0.0 W/m2 CLR
23:03 53.7 °F 36.0 °F 30.03 in Calm     51 % 0.00 in 0.0 W/m2 CLR
23:08 53.7 °F 36.0 °F 30.03 in Calm     51 % 0.00 in 0.0 W/m2 CLR
23:13 53.7 °F 36.0 °F 30.04 in Calm     51 % 0.00 in 0.0 W/m2 CLR
23:18 53.7 °F 36.5 °F 30.04 in Calm     52 % 0.00 in 0.0 W/m2 CLR
23:23 53.5 °F 37.7 °F 30.04 in Calm     55 % 0.00 in 0.0 W/m2 CLR
23:28 53.1 °F 38.3 °F 30.04 in Calm     57 % 0.00 in 0.0 W/m2 CLR
23:33 52.8 °F 38.9 °F 30.04 in Calm     59 % 0.00 in 0.0 W/m2 CLR
23:38 52.6 °F 39.1 °F 30.04 in Calm     60 % 0.00 in 0.0 W/m2 CLR
23:43 52.4 °F 39.3 °F 30.04 in Calm     61 % 0.00 in 0.0 W/m2 CLR
23:48 52.0 °F 39.4 °F 30.04 in Calm     62 % 0.00 in 0.0 W/m2 CLR
23:53 51.7 °F 39.5 °F 30.04 in Calm     63 % 0.00 in 0.0 W/m2 CLR
23:58 51.5 °F 39.7 °F 30.04 in Calm     64 % 0.00 in 0.0 W/m2 CLR
Air Products Campus Weather
Compliments of Weather Underground - 3.5 mb